createdAt,value
2023-01-25T00:02:10.525Z,25.30
2023-01-25T00:04:37.751Z,23.52
2023-01-25T00:07:05.183Z,25.40
2023-01-25T00:09:32.283Z,22.90
2023-01-25T00:11:59.426Z,25.02
2023-01-25T00:14:26.731Z,27.33
2023-01-25T00:16:53.952Z,26.13
2023-01-25T00:19:21.150Z,26.60
2023-01-25T00:21:48.337Z,24.67
2023-01-25T00:24:15.551Z,28.00
2023-01-25T00:26:45.871Z,27.17
2023-01-25T00:29:14.080Z,24.75
2023-01-25T00:35:56.929Z,24.58
2023-01-25T00:38:34.091Z,28.30
2023-01-25T00:41:01.168Z,25.45
2023-01-25T00:43:28.270Z,26.58
2023-01-25T00:46:01.885Z,24.95
2023-01-25T00:48:29.138Z,24.58
2023-01-25T00:51:03.382Z,26.75
2023-01-25T00:53:30.535Z,24.33
2023-01-25T00:55:57.710Z,24.38
2023-01-25T00:58:24.844Z,29.10
2023-01-25T01:00:53.329Z,24.90
2023-01-25T01:03:20.503Z,26.65
2023-01-25T01:05:47.701Z,23.92
2023-01-25T01:20:34.268Z,24.73
2023-01-25T01:23:01.402Z,27.38
2023-01-25T01:25:28.613Z,27.08
2023-01-25T01:27:55.790Z,30.73
2023-01-25T01:30:23.642Z,27.55
2023-01-25T01:32:51.748Z,26.65
2023-01-25T01:35:19.025Z,26.08
2023-01-25T01:37:46.149Z,26.70
2023-01-25T01:40:16.801Z,26.73
2023-01-25T01:43:01.354Z,25.13
2023-01-25T01:45:43.951Z,27.00
2023-01-25T01:48:33.244Z,25.10
2023-01-25T01:51:03.980Z,23.10
2023-01-25T01:53:32.737Z,24.05
2023-01-25T01:56:03.230Z,24.20
2023-01-25T01:58:31.040Z,24.98
2023-01-25T02:00:58.343Z,23.42
2023-01-25T02:03:26.067Z,25.10
2023-01-25T02:06:01.483Z,23.02
2023-01-25T02:08:30.865Z,25.25
2023-01-25T02:10:58.828Z,24.38
2023-01-25T02:13:26.285Z,26.95
2023-01-25T02:15:53.963Z,23.83
2023-01-25T02:18:21.155Z,25.48
2023-01-25T02:20:52.848Z,22.83
2023-01-25T02:23:43.175Z,25.80
2023-01-25T02:26:10.672Z,24.80
2023-01-25T02:28:46.795Z,22.55
2023-01-25T02:31:39.115Z,20.15
2023-01-25T02:34:06.338Z,27.50
2023-01-25T02:36:34.765Z,23.75
2023-01-25T02:39:09.019Z,23.63
2023-01-25T02:41:40.605Z,21.98
2023-01-25T02:44:11.218Z,23.08
2023-01-25T02:46:39.995Z,22.88
2023-01-25T02:49:09.232Z,24.35
2023-01-25T02:51:41.553Z,22.60
2023-01-25T02:54:10.861Z,25.60
2023-01-25T02:56:40.666Z,26.13
2023-01-25T02:59:08.929Z,24.80
2023-01-25T03:01:37.774Z,27.42
2023-01-25T03:04:06.009Z,24.83
2023-01-25T03:06:34.673Z,27.35
2023-01-25T03:09:03.711Z,24.08
2023-01-25T03:11:31.059Z,25.17
2023-01-25T03:13:58.135Z,32.53
2023-01-25T03:16:25.325Z,27.48
2023-01-25T03:18:55.773Z,27.90
2023-01-25T03:21:25.012Z,29.98
2023-01-25T03:23:57.305Z,26.73
2023-01-25T03:26:25.504Z,24.52
2023-01-25T03:28:52.639Z,24.98
2023-01-25T03:31:20.026Z,31.02
2023-01-25T03:33:47.515Z,27.27
2023-01-25T03:36:14.762Z,23.20
2023-01-25T03:38:41.930Z,22.85
2023-01-25T03:41:09.465Z,26.05
2023-01-25T03:43:36.634Z,28.50
2023-01-25T03:46:03.768Z,28.00
2023-01-25T03:48:31.650Z,28.40
2023-01-25T03:50:59.598Z,26.85
2023-01-25T03:53:31.999Z,27.95
2023-01-25T03:56:04.294Z,22.75
2023-01-25T03:58:31.733Z,26.70
2023-01-25T04:01:00.233Z,20.98
2023-01-25T04:03:30.172Z,24.63
2023-01-25T04:05:58.882Z,27.10
2023-01-25T04:08:26.487Z,26.23
2023-01-25T04:10:59.670Z,28.27
2023-01-25T04:13:27.000Z,27.60
2023-01-25T04:15:54.317Z,24.98
2023-01-25T04:18:21.856Z,27.33
2023-01-25T04:20:55.686Z,26.88
2023-01-25T04:23:23.526Z,27.15
2023-01-25T04:25:58.618Z,23.63
2023-01-25T04:28:26.757Z,29.38
2023-01-25T04:30:55.850Z,27.85
2023-01-25T04:33:23.080Z,27.63
2023-01-25T04:35:50.333Z,27.98
2023-01-25T04:38:18.952Z,29.33
2023-01-25T04:40:46.194Z,25.58
2023-01-25T04:43:14.822Z,28.98
2023-01-25T04:45:42.107Z,26.55
2023-01-25T04:48:10.924Z,25.70
2023-01-25T04:50:38.739Z,25.83
2023-01-25T04:53:07.151Z,25.42
2023-01-25T04:55:34.607Z,24.55
2023-01-25T04:58:02.553Z,25.42
2023-01-25T05:00:30.233Z,18.65
2023-01-25T05:02:57.378Z,19.38
2023-01-25T05:05:24.925Z,20.25
2023-01-25T05:07:52.190Z,18.77
2023-01-25T05:10:19.397Z,17.17
2023-01-25T05:12:46.541Z,19.05
2023-01-25T05:15:13.762Z,17.63
2023-01-25T05:17:40.891Z,18.23
2023-01-25T05:20:08.964Z,18.83
2023-01-25T05:22:36.264Z,17.27
2023-01-25T05:25:04.149Z,19.77
2023-01-25T05:27:31.323Z,15.98
2023-01-25T05:29:58.453Z,18.10
2023-01-25T05:32:25.666Z,19.67
2023-01-25T05:34:52.778Z,19.23
2023-01-25T05:37:21.036Z,16.70
2023-01-25T05:39:48.504Z,18.85
2023-01-25T05:42:18.377Z,19.25
2023-01-25T05:44:47.554Z,20.15
2023-01-25T05:47:33.685Z,21.33
2023-01-25T05:50:32.069Z,21.05
2023-01-25T05:52:59.319Z,20.83
2023-01-25T05:55:26.488Z,20.58
2023-01-25T05:57:56.266Z,18.95
2023-01-25T06:00:23.950Z,17.83
2023-01-25T06:02:51.255Z,19.77
2023-01-25T06:05:18.543Z,15.57
2023-01-25T06:07:45.682Z,17.83
2023-01-25T06:10:12.835Z,16.55
2023-01-25T06:12:40.449Z,19.02
2023-01-25T06:15:08.521Z,16.15
2023-01-25T06:17:35.887Z,17.50
2023-01-25T06:20:03.061Z,18.17
2023-01-25T06:22:30.159Z,16.52
2023-01-25T06:24:57.268Z,15.90
2023-01-25T06:27:24.366Z,15.95
2023-01-25T06:29:51.566Z,15.00
2023-01-25T06:32:18.807Z,14.05
2023-01-25T06:34:46.419Z,15.23
2023-01-25T06:37:13.656Z,14.20
2023-01-25T06:39:40.859Z,18.08
2023-01-25T06:42:32.992Z,14.45
2023-01-25T06:45:00.350Z,20.27
2023-01-25T06:47:27.493Z,16.38
2023-01-25T06:49:54.658Z,14.00
2023-01-25T06:52:21.798Z,14.48
2023-01-25T06:54:48.912Z,15.40
2023-01-25T06:57:16.017Z,17.33
2023-01-25T06:59:43.137Z,18.05
2023-01-25T07:02:19.133Z,21.13
2023-01-25T07:04:46.240Z,17.65
2023-01-25T07:07:14.049Z,21.55
2023-01-25T07:09:41.195Z,20.23
2023-01-25T07:12:08.335Z,16.80
2023-01-25T07:14:35.611Z,20.38
2023-01-25T07:17:03.951Z,19.95
2023-01-25T07:19:32.258Z,21.13
2023-01-25T07:21:59.389Z,20.63
2023-01-25T07:24:28.730Z,22.48
2023-01-25T07:26:55.957Z,22.55
2023-01-25T07:29:23.260Z,25.60
2023-01-25T07:31:50.360Z,25.55
2023-01-25T07:34:17.564Z,22.88
2023-01-25T07:36:44.770Z,23.35
2023-01-25T07:39:12.004Z,24.95
2023-01-25T07:41:39.859Z,30.08
2023-01-25T07:44:06.953Z,25.58
2023-01-25T07:46:34.143Z,29.67
2023-01-25T07:49:01.389Z,31.27
2023-01-25T07:51:30.707Z,32.15
2023-01-25T07:54:00.244Z,31.05
2023-01-25T07:56:33.272Z,31.45
2023-01-25T07:59:02.745Z,32.58
2023-01-25T08:01:32.166Z,30.40
2023-01-25T08:03:59.430Z,32.85
2023-01-25T08:06:34.490Z,34.20
2023-01-25T08:09:04.122Z,33.47
2023-01-25T08:11:32.101Z,39.42
2023-01-25T08:14:01.814Z,36.78
2023-01-25T08:16:30.138Z,37.60
2023-01-25T08:18:59.707Z,36.17
2023-01-25T08:21:30.891Z,36.40
2023-01-25T08:23:59.174Z,38.00
2023-01-25T08:26:26.413Z,44.03
2023-01-25T08:28:53.953Z,42.08
2023-01-25T08:31:24.312Z,36.95
2023-01-25T08:33:52.077Z,41.50
2023-01-25T08:36:20.298Z,39.45
2023-01-25T08:38:47.969Z,37.85
2023-01-25T08:41:17.949Z,31.75
2023-01-25T08:43:46.142Z,39.35
2023-01-25T08:46:15.330Z,36.85
2023-01-25T08:48:42.402Z,35.22
2023-01-25T08:51:12.182Z,33.80
2023-01-25T08:53:39.603Z,36.55
2023-01-25T08:56:11.108Z,33.92
2023-01-25T08:58:40.161Z,29.80
2023-01-25T09:01:08.861Z,33.63
2023-01-25T09:03:38.356Z,31.45
2023-01-25T09:06:06.110Z,32.03
2023-01-25T09:08:34.150Z,33.20
2023-01-25T09:11:06.727Z,33.65
2023-01-25T09:13:33.887Z,35.60
2023-01-25T09:16:09.852Z,33.83
2023-01-25T09:18:38.381Z,30.33
2023-01-25T09:21:10.580Z,34.53
2023-01-25T09:23:50.523Z,30.55
2023-01-25T09:26:19.303Z,34.22
2023-01-25T09:28:48.674Z,32.53
2023-01-25T09:31:22.075Z,32.00
2023-01-25T09:33:51.633Z,36.67
2023-01-25T09:36:19.214Z,36.88
2023-01-25T09:38:46.422Z,32.28
2023-01-25T09:41:39.912Z,34.92
2023-01-25T09:44:36.832Z,33.83
2023-01-25T09:47:36.588Z,31.33
2023-01-25T09:50:10.087Z,28.10
2023-01-25T09:52:42.451Z,30.60
2023-01-25T09:55:15.174Z,28.98
2023-01-25T09:57:45.287Z,28.40
2023-01-25T10:00:19.273Z,29.75
2023-01-25T10:03:01.725Z,28.90
2023-01-25T10:05:31.989Z,31.20
2023-01-25T10:08:30.048Z,29.55
2023-01-25T10:11:22.389Z,38.33
2023-01-25T10:13:49.603Z,32.58
2023-01-25T10:16:26.134Z,35.55
2023-01-25T10:19:28.589Z,35.22
2023-01-25T10:22:08.711Z,35.22
2023-01-25T10:24:47.884Z,35.45
2023-01-25T10:27:49.973Z,33.13
2023-01-25T10:30:35.513Z,35.10
2023-01-25T10:33:10.682Z,31.60
2023-01-25T10:35:43.119Z,34.47
2023-01-25T10:38:21.869Z,29.03
2023-01-25T10:40:54.231Z,26.60
2023-01-25T10:43:22.100Z,31.45
2023-01-25T10:45:50.338Z,31.60
2023-01-25T10:48:35.630Z,32.83
2023-01-25T10:51:02.746Z,33.67
2023-01-25T10:53:39.412Z,35.17
2023-01-25T10:56:06.556Z,34.00
2023-01-25T10:58:36.227Z,33.08
2023-01-25T11:01:08.382Z,33.72
2023-01-25T11:03:40.735Z,35.05
2023-01-25T11:06:09.110Z,29.50
2023-01-25T11:08:41.325Z,35.15
2023-01-25T11:11:40.505Z,37.08
2023-01-25T11:14:17.853Z,35.38
2023-01-25T11:16:48.097Z,34.15
2023-01-25T11:19:41.629Z,32.95
2023-01-25T11:22:20.564Z,34.90
2023-01-25T11:24:47.942Z,36.03
2023-01-25T11:27:21.548Z,32.78
2023-01-25T11:30:09.761Z,38.08
2023-01-25T11:32:40.790Z,35.80
2023-01-25T11:35:18.316Z,33.67
2023-01-25T11:38:15.674Z,36.22
2023-01-25T11:40:48.689Z,33.58
2023-01-25T11:44:00.721Z,42.95
2023-01-25T11:46:33.845Z,33.08
2023-01-25T11:49:07.517Z,33.58
2023-01-25T11:51:54.044Z,39.80
2023-01-25T11:54:38.603Z,40.58
2023-01-25T11:57:17.963Z,36.33
2023-01-25T12:00:01.292Z,39.65
2023-01-25T12:02:28.818Z,40.17
2023-01-25T12:04:57.446Z,41.42
2023-01-25T12:07:33.811Z,46.63
2023-01-25T12:10:26.141Z,49.90
2023-01-25T12:13:15.097Z,43.03
2023-01-25T12:15:45.147Z,47.15
2023-01-25T12:18:38.629Z,48.65
2023-01-25T12:21:13.394Z,43.65
2023-01-25T12:24:13.722Z,49.28
2023-01-25T12:26:56.274Z,42.80
2023-01-25T12:29:29.640Z,48.42
2023-01-25T12:32:16.083Z,45.85
2023-01-25T12:34:50.769Z,45.47
2023-01-25T12:37:35.409Z,43.45
2023-01-25T12:40:20.061Z,41.47
2023-01-25T12:42:54.250Z,44.72
2023-01-25T12:45:33.602Z,45.70
2023-01-25T12:48:04.923Z,41.70
2023-01-25T12:50:50.887Z,36.25
2023-01-25T12:53:30.483Z,40.28
2023-01-25T12:55:58.810Z,42.47
2023-01-25T12:58:44.660Z,40.45
2023-01-25T13:01:17.801Z,41.22
2023-01-25T13:04:20.668Z,43.72
2023-01-25T13:07:11.434Z,42.83
2023-01-25T13:10:03.016Z,42.72
2023-01-25T13:12:53.895Z,41.85
2023-01-25T13:15:41.328Z,44.47
2023-01-25T13:18:28.373Z,42.92
2023-01-25T13:20:57.746Z,47.97
2023-01-25T13:23:43.880Z,45.53
2023-01-25T13:29:00.664Z,44.60
2023-01-25T13:31:58.978Z,44.60
2023-01-25T13:34:42.550Z,44.78
2023-01-25T13:37:29.461Z,41.95
2023-01-25T13:40:06.712Z,45.25
2023-01-25T13:42:36.726Z,50.50
2023-01-25T13:45:19.114Z,50.05
2023-01-25T13:48:17.685Z,43.05
2023-01-25T13:50:55.737Z,35.92
2023-01-25T13:53:26.697Z,40.85
2023-01-25T13:55:56.808Z,37.17
2023-01-25T13:58:36.326Z,34.35
2023-01-25T14:01:08.362Z,40.35
2023-01-25T14:03:47.699Z,40.50
2023-01-25T14:06:27.771Z,38.45
2023-01-25T14:08:58.299Z,38.17
2023-01-25T14:11:35.099Z,42.42
2023-01-25T14:14:14.696Z,39.70
2023-01-25T14:16:42.855Z,39.35
2023-01-25T14:19:37.916Z,42.80
2023-01-25T14:22:29.354Z,38.38
2023-01-25T14:25:18.324Z,41.45
2023-01-25T14:27:57.550Z,42.75
2023-01-25T14:30:33.260Z,41.50
2023-01-25T14:33:19.871Z,40.83
2023-01-25T14:35:55.170Z,36.92
2023-01-25T14:38:33.937Z,36.63
2023-01-25T14:41:09.432Z,38.83
2023-01-25T14:43:37.659Z,41.38
2023-01-25T14:46:26.120Z,39.30
2023-01-25T14:49:09.694Z,39.30
2023-01-25T14:51:47.606Z,35.92
2023-01-25T14:54:29.606Z,34.63
2023-01-25T14:57:00.810Z,32.53
2023-01-25T14:59:40.285Z,34.85
2023-01-25T15:02:16.946Z,33.58
2023-01-25T15:05:11.020Z,31.30
2023-01-25T15:08:31.187Z,36.03
2023-01-25T15:11:19.543Z,34.63
2023-01-25T15:13:47.620Z,38.72
2023-01-25T15:16:18.025Z,34.35
2023-01-25T15:18:47.862Z,34.17
2023-01-25T15:21:25.305Z,37.65
2023-01-25T15:23:53.911Z,33.63
2023-01-25T15:26:23.549Z,29.17
2023-01-25T15:28:52.705Z,32.90
2023-01-25T15:31:31.882Z,29.77
2023-01-25T15:34:01.672Z,29.60
2023-01-25T15:36:34.602Z,32.40
2023-01-25T15:39:02.186Z,32.25
2023-01-25T15:41:30.261Z,36.63
2023-01-25T15:43:58.104Z,34.42
2023-01-25T15:46:29.182Z,39.80
2023-01-25T15:48:56.895Z,39.42
2023-01-25T15:51:24.862Z,36.85
2023-01-25T15:53:53.289Z,42.05
2023-01-25T15:56:23.527Z,36.33
2023-01-25T15:58:53.791Z,34.13
2023-01-25T16:01:23.361Z,41.22
2023-01-25T16:03:51.620Z,36.20
2023-01-25T16:06:25.392Z,39.63
2023-01-25T16:08:56.247Z,40.83
2023-01-25T16:11:25.120Z,38.80
2023-01-25T16:13:53.319Z,41.50
2023-01-25T16:16:25.271Z,44.25
2023-01-25T16:18:58.946Z,36.63
2023-01-25T16:21:30.383Z,39.35
2023-01-25T16:24:00.356Z,38.78
2023-01-25T16:26:31.375Z,37.60
2023-01-25T16:28:59.076Z,43.70
2023-01-25T16:31:32.893Z,41.63
2023-01-25T16:34:01.520Z,36.88
2023-01-25T16:36:30.032Z,43.42
2023-01-25T16:39:17.926Z,40.55
2023-01-25T16:41:48.309Z,33.55
2023-01-25T16:44:16.749Z,33.15
2023-01-25T16:46:44.678Z,32.22
2023-01-25T16:49:28.967Z,32.30
2023-01-25T16:51:58.164Z,33.35
2023-01-25T16:54:26.739Z,31.55
2023-01-25T16:56:58.975Z,36.33
2023-01-25T16:59:29.602Z,39.63
2023-01-25T17:02:04.613Z,38.67
2023-01-25T17:04:33.298Z,34.75
2023-01-25T17:07:02.236Z,31.48
2023-01-25T17:09:32.856Z,33.78
2023-01-25T17:12:00.557Z,39.40
2023-01-25T17:14:29.463Z,30.25
2023-01-25T17:16:57.074Z,28.38
2023-01-25T17:19:29.354Z,30.50
2023-01-25T17:21:59.244Z,35.40
2023-01-25T17:24:29.643Z,35.72
2023-01-25T17:26:58.113Z,41.88
2023-01-25T17:29:27.440Z,38.08
2023-01-25T17:32:00.807Z,39.42
2023-01-25T17:34:29.716Z,41.78
2023-01-25T17:36:57.537Z,40.97
2023-01-25T17:39:25.516Z,31.48
2023-01-25T17:41:56.855Z,35.78
2023-01-25T17:44:27.692Z,33.42
2023-01-25T17:46:59.024Z,35.33
2023-01-25T17:49:30.809Z,28.85
2023-01-25T17:51:58.530Z,30.67
2023-01-25T17:54:26.270Z,32.33
2023-01-25T17:57:02.504Z,39.88
2023-01-25T17:59:31.804Z,35.50
2023-01-25T18:01:59.560Z,35.50
2023-01-25T18:04:28.115Z,34.38
2023-01-25T18:06:56.079Z,31.88
2023-01-25T18:09:26.616Z,29.88
2023-01-25T18:11:54.855Z,30.52
2023-01-25T18:14:23.025Z,30.42
2023-01-25T18:16:50.750Z,36.40
2023-01-25T18:19:29.047Z,36.58
2023-01-25T18:22:06.361Z,36.72
2023-01-25T18:24:44.112Z,39.63
2023-01-25T18:27:33.386Z,32.25
2023-01-25T18:33:39.252Z,35.47
2023-01-25T18:36:34.167Z,40.33
2023-01-25T18:39:16.258Z,41.22
2023-01-25T18:47:59.047Z,41.60
2023-01-25T18:50:34.082Z,37.78
2023-01-25T18:53:29.185Z,37.42
2023-01-25T18:56:33.407Z,42.65
2023-01-25T18:59:03.377Z,35.03
2023-01-25T19:17:56.744Z,37.42
2023-01-25T19:28:21.143Z,40.47
2023-01-25T19:31:32.376Z,42.45
2023-01-25T19:34:33.429Z,45.63
2023-01-25T19:40:51.448Z,42.13
2023-01-25T19:44:04.843Z,37.60
2023-01-25T19:46:45.119Z,38.67
2023-01-25T19:49:53.524Z,43.10
2023-01-25T19:52:26.034Z,37.78
2023-01-25T19:54:57.944Z,37.50
2023-01-25T19:57:25.072Z,39.90
2023-01-25T19:59:52.287Z,36.05
2023-01-25T20:02:19.964Z,36.88
2023-01-25T20:04:47.120Z,36.40
2023-01-25T20:07:14.231Z,38.85
2023-01-25T20:09:41.359Z,38.72
2023-01-25T20:12:08.752Z,42.08
2023-01-25T20:14:37.402Z,39.17
2023-01-25T20:17:06.135Z,35.53
2023-01-25T20:19:35.109Z,38.40
2023-01-25T20:22:02.221Z,33.55
2023-01-25T20:24:29.515Z,34.58
2023-01-25T20:26:58.691Z,36.38
2023-01-25T20:29:27.578Z,36.53
2023-01-25T20:31:54.776Z,32.83
2023-01-25T20:34:23.204Z,34.60
2023-01-25T20:36:51.262Z,32.25
2023-01-25T20:39:20.712Z,33.08
2023-01-25T20:41:48.003Z,30.60
2023-01-25T20:44:17.124Z,35.30
2023-01-25T20:46:44.688Z,29.08
2023-01-25T20:49:15.303Z,26.27
2023-01-25T20:51:42.887Z,29.65
2023-01-25T20:54:10.399Z,27.75
2023-01-25T20:56:37.619Z,26.85
2023-01-25T20:59:05.678Z,32.03
2023-01-25T21:01:38.976Z,34.05
2023-01-25T21:04:07.677Z,33.67
2023-01-25T21:06:35.888Z,30.77
2023-01-25T21:09:03.952Z,26.27
2023-01-25T21:11:31.740Z,28.50
2023-01-25T21:13:59.480Z,25.38
2023-01-25T21:16:27.141Z,28.38
2023-01-25T21:18:56.202Z,27.27
2023-01-25T21:21:28.261Z,33.00
2023-01-25T21:23:57.730Z,28.73
2023-01-25T21:26:27.176Z,29.23
2023-01-25T21:28:54.958Z,32.40
2023-01-25T21:31:33.340Z,28.38
2023-01-25T21:34:01.574Z,26.38
2023-01-25T21:36:28.977Z,34.55
2023-01-25T21:38:56.453Z,33.13
2023-01-25T21:41:25.756Z,29.65
2023-01-25T21:44:12.837Z,33.35
2023-01-25T21:46:40.201Z,28.88
2023-01-25T21:49:27.855Z,29.10
2023-01-25T21:51:56.886Z,27.35
2023-01-25T21:54:26.133Z,28.08
2023-01-25T21:56:55.057Z,25.75
2023-01-25T21:59:22.273Z,25.98
2023-01-25T22:01:50.244Z,29.00
2023-01-25T22:04:18.483Z,32.40
2023-01-25T22:06:46.053Z,26.98
2023-01-25T22:09:13.711Z,31.63
2023-01-25T22:11:40.982Z,29.65
2023-01-25T22:14:08.173Z,26.00
2023-01-25T22:16:35.436Z,25.80
2023-01-25T22:19:02.728Z,29.83
2023-01-25T22:21:32.046Z,29.92
2023-01-25T22:24:00.681Z,26.52
2023-01-25T22:27:03.105Z,31.70
2023-01-25T22:29:31.033Z,30.95
2023-01-25T22:31:58.305Z,31.92
2023-01-25T22:34:25.518Z,35.58
2023-01-25T22:36:52.733Z,29.13
2023-01-25T22:39:19.900Z,28.27
2023-01-25T22:41:47.078Z,28.50
2023-01-25T22:44:14.653Z,26.55
2023-01-25T22:46:41.867Z,26.38
2023-01-25T22:49:09.001Z,30.50
2023-01-25T22:51:36.213Z,29.73
2023-01-25T22:54:03.336Z,28.52
2023-01-25T22:56:32.189Z,29.08
2023-01-25T22:59:00.233Z,30.48
2023-01-25T23:01:32.894Z,29.20
2023-01-25T23:04:00.918Z,28.48
2023-01-25T23:06:30.359Z,27.58
2023-01-25T23:09:01.462Z,27.20
2023-01-25T23:11:35.346Z,29.00
2023-01-25T23:14:26.533Z,29.00
2023-01-25T23:17:13.891Z,27.98
2023-01-25T23:19:41.000Z,30.40
2023-01-25T23:22:08.148Z,31.75
2023-01-25T23:24:35.252Z,30.63
2023-01-25T23:27:02.397Z,28.55
2023-01-25T23:29:29.501Z,28.75
2023-01-25T23:31:56.753Z,30.77
2023-01-25T23:34:24.155Z,31.30
2023-01-25T23:36:51.258Z,26.95
2023-01-25T23:39:18.540Z,26.80
2023-01-25T23:41:45.611Z,29.17
2023-01-25T23:44:12.729Z,29.30
2023-01-25T23:46:39.869Z,31.13
2023-01-25T23:49:06.984Z,28.58
2023-01-25T23:51:34.096Z,32.42
2023-01-25T23:54:01.210Z,32.38
2023-01-25T23:56:28.364Z,29.90
2023-01-25T23:58:55.466Z,28.73
